Time;durP1;ratioP1;P1;durP2;ratioP2;P2;SDS_P1;SDS_P2;PMS_P1;PMS_P2;Temp;Humidity;BMP_temperature;BMP_pressure;BME280_temperature;BME280_humidity;BME280_pressure;Samples;Min_cycle;Max_cycle;Signal;HPM_P1;HPM_P2
2021/08/14 00:00:50;;;;;;;17.17;9.82;;;15.70;66.70;;;;;;5052382;28;20394;-75
2021/08/14 00:03:16;;;;;;;16.50;10.23;;;15.60;67.50;;;;;;5051982;28;20401;-73
2021/08/14 00:05:41;;;;;;;21.50;9.90;;;15.60;68.10;;;;;;5051926;28;20398;-75
2021/08/14 00:08:07;;;;;;;16.40;9.47;;;15.90;67.00;;;;;;5051995;28;20389;-73
2021/08/14 00:10:32;;;;;;;16.70;9.60;;;16.00;64.50;;;;;;5051154;28;20436;-74
2021/08/14 00:12:58;;;;;;;17.63;9.30;;;15.80;65.00;;;;;;5052207;28;20691;-74
2021/08/14 00:15:23;;;;;;;20.47;9.70;;;15.80;66.10;;;;;;5056027;28;20909;-74
2021/08/14 00:17:49;;;;;;;16.93;9.83;;;15.70;66.20;;;;;;5057656;28;20432;-76
2021/08/14 00:20:15;;;;;;;15.80;9.20;;;15.70;66.10;;;;;;5055515;28;20436;-77
2021/08/14 00:22:40;;;;;;;16.25;9.02;;;15.60;66.70;;;;;;5052938;28;20400;-76
2021/08/14 00:25:07;;;;;;;18.83;9.52;;;15.60;67.00;;;;;;5056756;28;20401;-75
2021/08/14 00:27:33;;;;;;;17.00;10.23;;;15.60;66.20;;;;;;5056088;28;20392;-76
2021/08/14 00:29:58;;;;;;;18.52;9.40;;;15.50;67.20;;;;;;5055570;28;20401;-75
2021/08/14 00:32:24;;;;;;;18.57;9.90;;;15.60;68.20;;;;;;5050524;28;20889;-74
2021/08/14 00:34:49;;;;;;;15.10;9.20;;;15.60;67.20;;;;;;5051305;28;20393;-75
2021/08/14 00:37:15;;;;;;;14.98;8.95;;;15.60;67.70;;;;;;5051267;28;20924;-73
2021/08/14 00:39:40;;;;;;;18.05;9.55;;;15.40;68.70;;;;;;5052119;28;20400;-77
2021/08/14 00:42:06;;;;;;;23.23;10.77;;;15.40;69.50;;;;;;5051519;28;20461;-74
2021/08/14 00:44:33;;;;;;;15.93;9.07;;;15.40;70.20;;;;;;5050370;28;20421;-75
2021/08/14 00:47:02;;;;;;;15.40;9.60;;;15.40;70.30;;;;;;5051840;28;20381;-76
2021/08/14 00:49:27;;;;;;;17.92;9.93;;;15.30;70.90;;;;;;5052658;28;20393;-78
2021/08/14 00:51:53;;;;;;;18.33;9.87;;;15.30;72.00;;;;;;5051764;28;20386;-77
2021/08/14 00:54:18;;;;;;;17.43;10.50;;;15.30;72.00;;;;;;5051170;28;20408;-75
2021/08/14 00:56:44;;;;;;;17.50;10.53;;;15.20;72.50;;;;;;5051724;28;20757;-76
2021/08/14 00:59:10;;;;;;;16.20;9.80;;;15.20;73.30;;;;;;5052472;28;20393;-76
2021/08/14 01:01:35;;;;;;;23.02;10.95;;;15.20;73.90;;;;;;5051544;28;20409;-76
2021/08/14 01:04:02;;;;;;;15.68;9.93;;;15.10;74.70;;;;;;5051074;28;20534;-76
2021/08/14 01:06:28;;;;;;;18.55;11.00;;;15.10;75.00;;;;;;5049765;28;20390;-76
2021/08/14 01:08:55;;;;;;;22.98;11.27;;;15.10;76.00;;;;;;5050147;28;20944;-76
2021/08/14 01:11:21;;;;;;;21.40;10.65;;;15.10;76.50;;;;;;5052635;28;20409;-76
2021/08/14 01:13:47;;;;;;;23.33;11.30;;;15.10;77.00;;;;;;5052420;28;20381;-76
2021/08/14 01:16:13;;;;;;;19.83;11.35;;;15.10;76.50;;;;;;5053009;28;20447;-76
2021/08/14 01:18:43;;;;;;;18.73;11.10;;;15.10;76.40;;;;;;5050536;28;20393;-76
2021/08/14 01:21:10;;;;;;;21.43;12.30;;;15.10;77.10;;;;;;5051383;28;20907;-77
2021/08/14 01:23:35;;;;;;;24.27;12.30;;;15.10;77.70;;;;;;5051307;28;20793;-76
2021/08/14 01:26:08;;;;;;;20.42;12.25;;;15.10;77.90;;;;;;5051089;28;20442;-75
2021/08/14 01:28:36;;;;;;;21.80;12.70;;;15.20;76.70;;;;;;5050925;28;20400;-78
2021/08/14 01:31:07;;;;;;;23.33;11.17;;;15.30;75.10;;;;;;5051791;28;20910;-75
2021/08/14 01:33:34;;;;;;;25.77;12.70;;;15.30;75.30;;;;;;5051456;28;20894;-76
2021/08/14 01:36:01;;;;;;;22.13;12.38;;;15.20;76.20;;;;;;5050888;28;20854;-75
2021/08/14 01:38:27;;;;;;;19.85;11.90;;;15.30;75.80;;;;;;5050293;28;20731;-74
2021/08/14 01:40:52;;;;;;;22.93;11.77;;;15.40;75.00;;;;;;5050538;28;20388;-75
2021/08/14 01:43:20;;;;;;;24.52;12.93;;;15.40;73.60;;;;;;5050800;28;20977;-75
2021/08/14 01:45:47;;;;;;;23.00;13.00;;;15.30;74.20;;;;;;5050257;28;20750;-74
2021/08/14 01:48:12;;;;;;;25.47;13.60;;;15.20;75.60;;;;;;5050385;28;20373;-74
2021/08/14 01:50:38;;;;;;;23.57;13.10;;;15.20;76.10;;;;;;5050465;28;20465;-74
2021/08/14 01:53:03;;;;;;;24.43;13.40;;;15.20;76.50;;;;;;5050551;28;20397;-75
2021/08/14 01:55:29;;;;;;;24.33;13.38;;;15.20;76.50;;;;;;5050404;28;20389;-75
2021/08/14 01:57:54;;;;;;;21.93;13.13;;;15.20;76.90;;;;;;5051105;28;20408;-76
2021/08/14 02:00:20;;;;;;;21.00;13.40;;;15.20;76.90;;;;;;5050075;28;20405;-75
2021/08/14 02:02:45;;;;;;;21.90;13.40;;;15.10;77.10;;;;;;5050327;28;20476;-76
2021/08/14 02:05:12;;;;;;;26.00;14.02;;;15.10;77.80;;;;;;5050782;28;20385;-77
2021/08/14 02:07:38;;;;;;;24.45;13.55;;;15.10;78.00;;;;;;5050307;28;20386;-75
2021/08/14 02:10:04;;;;;;;25.70;13.85;;;15.20;77.10;;;;;;5050512;28;20756;-76
2021/08/14 02:12:30;;;;;;;22.38;13.20;;;15.20;76.90;;;;;;5062802;23;20429;-69
2021/08/14 02:14:55;;;;;;;26.67;14.03;;;15.10;77.30;;;;;;5048411;28;20400;-70
2021/08/14 02:17:21;;;;;;;25.08;14.32;;;15.10;78.20;;;;;;5049590;28;20389;-70
2021/08/14 02:19:46;;;;;;;25.80;14.10;;;15.10;79.00;;;;;;5052990;28;20518;-70
2021/08/14 02:22:12;;;;;;;22.00;13.23;;;15.00;79.00;;;;;;5053745;28;20386;-71
2021/08/14 02:24:37;;;;;;;27.40;14.80;;;15.00;80.30;;;;;;5053480;28;20412;-71
2021/08/14 02:27:03;;;;;;;22.50;13.10;;;15.10;79.50;;;;;;5053784;28;20390;-71
2021/08/14 02:29:30;;;;;;;21.85;13.20;;;15.30;78.30;;;;;;5053231;28;20389;-71
2021/08/14 02:31:56;;;;;;;24.58;13.55;;;15.20;77.30;;;;;;5053717;28;20377;-70
2021/08/14 02:34:21;;;;;;;19.98;13.43;;;15.10;78.40;;;;;;5051832;28;20392;-70
2021/08/14 02:36:47;;;;;;;26.08;13.68;;;15.00;79.10;;;;;;5053183;28;20389;-70
2021/08/14 02:39:13;;;;;;;29.00;16.10;;;15.00;79.90;;;;;;5051918;28;20452;-69
2021/08/14 02:41:38;;;;;;;26.13;14.07;;;15.00;80.30;;;;;;5053361;28;20439;-69
2021/08/14 02:44:04;;;;;;;24.57;13.77;;;15.00;80.10;;;;;;5053016;28;20799;-70
2021/08/14 02:46:30;;;;;;;25.47;14.70;;;15.00;79.70;;;;;;5053324;28;20382;-70
2021/08/14 02:48:55;;;;;;;32.80;14.87;;;15.00;80.80;;;;;;5053270;28;20835;-69
2021/08/14 02:51:21;;;;;;;29.00;14.93;;;15.00;81.70;;;;;;5053259;28;20377;-70
2021/08/14 02:53:46;;;;;;;24.35;14.75;;;15.00;81.40;;;;;;5053780;28;20385;-70
2021/08/14 02:56:13;;;;;;;32.83;14.85;;;14.90;81.50;;;;;;5052848;28;20428;-70
2021/08/14 02:58:38;;;;;;;24.25;13.40;;;14.90;82.10;;;;;;5052622;28;20401;-71
2021/08/14 03:01:04;;;;;;;25.07;14.43;;;14.90;82.30;;;;;;5053291;28;20932;-69
2021/08/14 03:03:29;;;;;;;26.95;14.18;;;14.90;82.60;;;;;;5053289;28;20762;-70
2021/08/14 03:05:55;;;;;;;25.20;14.50;;;14.90;83.10;;;;;;5053017;28;20392;-70
2021/08/14 03:08:21;;;;;;;24.27;13.90;;;14.90;83.20;;;;;;5052817;28;20378;-70
2021/08/14 03:10:47;;;;;;;25.27;13.85;;;15.00;82.80;;;;;;5052584;28;20873;-70
2021/08/14 03:13:14;;;;;;;32.60;15.32;;;15.00;81.80;;;;;;5052872;28;20450;-70
2021/08/14 03:15:40;;;;;;;22.08;14.10;;;15.10;80.40;;;;;;5052859;28;20885;-70
2021/08/14 03:18:05;;;;;;;24.83;14.70;;;15.10;81.00;;;;;;5052455;28;20398;-69
2021/08/14 03:20:31;;;;;;;28.00;15.50;;;15.00;80.90;;;;;;5052760;28;20842;-70
2021/08/14 03:22:57;;;;;;;27.70;13.93;;;14.90;82.20;;;;;;5052649;28;20425;-70
2021/08/14 03:25:22;;;;;;;26.70;15.27;;;14.90;82.10;;;;;;5052206;28;20393;-71
2021/08/14 03:27:48;;;;;;;27.77;14.80;;;14.90;82.70;;;;;;5052176;28;20484;-69
2021/08/14 03:30:14;;;;;;;22.67;14.52;;;14.90;83.10;;;;;;5051460;28;20387;-70
2021/08/14 03:32:40;;;;;;;29.33;14.90;;;14.80;83.00;;;;;;5052608;28;20397;-71
2021/08/14 03:35:07;;;;;;;29.17;15.10;;;14.80;83.60;;;;;;5052255;28;20762;-71
2021/08/14 03:37:33;;;;;;;27.88;14.90;;;14.80;83.20;;;;;;5052227;28;20390;-70
2021/08/14 03:39:58;;;;;;;27.05;14.80;;;14.80;84.40;;;;;;5051968;28;20890;-69
2021/08/14 03:42:24;;;;;;;23.70;14.50;;;14.70;84.60;;;;;;5051693;28;20404;-70
2021/08/14 03:44:49;;;;;;;26.80;15.43;;;14.70;85.70;;;;;;5051331;28;20519;-70
2021/08/14 03:47:15;;;;;;;22.80;13.32;;;14.70;85.60;;;;;;5052110;28;20470;-70
2021/08/14 03:49:40;;;;;;;21.75;15.02;;;14.70;86.30;;;;;;5052238;28;20457;-70
2021/08/14 03:52:06;;;;;;;29.38;15.50;;;14.70;86.70;;;;;;5052525;28;20412;-70
2021/08/14 03:54:32;;;;;;;25.38;15.30;;;14.70;87.00;;;;;;5052739;28;20484;-70
2021/08/14 03:56:57;;;;;;;25.43;15.33;;;14.60;86.60;;;;;;5052640;28;20384;-70
2021/08/14 03:59:23;;;;;;;27.13;15.27;;;14.50;87.70;;;;;;5051874;28;20381;-71
2021/08/14 04:01:48;;;;;;;28.17;16.20;;;14.50;88.60;;;;;;5051866;28;20944;-71
2021/08/14 04:04:14;;;;;;;31.38;16.23;;;14.50;89.60;;;;;;5051777;28;20428;-70
2021/08/14 04:06:39;;;;;;;23.75;14.90;;;14.50;91.00;;;;;;5051789;28;20746;-70
2021/08/14 04:09:05;;;;;;;27.50;15.02;;;14.50;90.30;;;;;;5051341;28;20396;-70
2021/08/14 04:11:30;;;;;;;25.70;15.20;;;14.60;90.00;;;;;;5051379;28;20405;-70
2021/08/14 04:13:56;;;;;;;26.70;15.23;;;14.60;89.70;;;;;;5051882;28;20455;-70
2021/08/14 04:16:21;;;;;;;32.42;15.77;;;14.60;90.20;;;;;;5050254;28;20885;-71
2021/08/14 04:18:47;;;;;;;26.02;15.20;;;14.50;90.20;;;;;;5051320;28;20393;-71
2021/08/14 04:21:12;;;;;;;29.70;15.20;;;14.60;90.90;;;;;;5051502;28;20882;-70
2021/08/14 04:23:38;;;;;;;26.73;14.27;;;14.60;89.70;;;;;;5051262;28;20405;-71
2021/08/14 04:26:04;;;;;;;27.03;14.80;;;14.60;90.40;;;;;;5051277;28;20389;-72
2021/08/14 04:28:29;;;;;;;27.73;15.55;;;14.60;90.60;;;;;;5051155;28;20388;-72
2021/08/14 04:30:55;;;;;;;25.08;15.38;;;14.60;91.60;;;;;;5051437;28;20388;-72
2021/08/14 04:33:20;;;;;;;24.50;14.90;;;14.60;92.20;;;;;;5051290;28;20381;-72
2021/08/14 04:35:47;;;;;;;28.00;14.83;;;14.60;92.20;;;;;;5051210;28;20465;-70
2021/08/14 04:38:12;;;;;;;24.13;14.90;;;14.60;91.90;;;;;;5050555;28;20421;-71
2021/08/14 04:40:38;;;;;;;26.02;15.50;;;14.70;91.80;;;;;;5050986;28;20390;-70
2021/08/14 04:43:03;;;;;;;26.23;15.43;;;14.70;91.80;;;;;;5050693;28;20785;-71
2021/08/14 04:45:29;;;;;;;24.50;14.03;;;14.70;92.40;;;;;;5050769;28;20389;-71
2021/08/14 04:47:54;;;;;;;25.63;15.63;;;14.80;91.30;;;;;;5050815;28;20378;-71
2021/08/14 04:50:20;;;;;;;23.77;14.48;;;14.90;90.20;;;;;;5050825;28;20381;-71
2021/08/14 04:52:45;;;;;;;27.60;15.63;;;14.90;89.30;;;;;;5050432;28;20389;-71
2021/08/14 04:55:11;;;;;;;26.03;15.30;;;14.90;89.50;;;;;;5050821;28;20393;-71
2021/08/14 04:57:36;;;;;;;28.30;15.60;;;14.90;89.40;;;;;;5050601;28;20720;-71
2021/08/14 05:00:04;;;;;;;27.43;15.30;;;14.90;89.20;;;;;;5050917;28;20866;-71
2021/08/14 05:02:30;;;;;;;28.58;15.10;;;14.90;88.80;;;;;;5050641;28;20389;-71
2021/08/14 05:04:56;;;;;;;26.35;14.93;;;15.00;88.60;;;;;;5050011;28;20412;-71
2021/08/14 05:07:21;;;;;;;26.80;14.90;;;15.10;88.10;;;;;;5050342;28;20959;-70
2021/08/14 05:09:47;;;;;;;24.20;15.45;;;15.10;87.40;;;;;;5050411;28;20870;-71
2021/08/14 05:12:12;;;;;;;32.60;15.70;;;15.10;87.20;;;;;;5050255;28;20875;-70
2021/08/14 05:14:38;;;;;;;29.88;15.48;;;15.20;86.00;;;;;;5050319;28;20385;-71
2021/08/14 05:17:04;;;;;;;27.20;15.57;;;15.30;85.50;;;;;;5050853;28;20399;-70
2021/08/14 05:19:29;;;;;;;27.00;15.70;;;15.40;84.80;;;;;;5049951;28;20398;-71
2021/08/14 05:21:55;;;;;;;24.80;15.00;;;15.40;84.10;;;;;;5050392;28;20389;-70
2021/08/14 05:24:21;;;;;;;23.93;15.40;;;15.40;83.90;;;;;;5050060;28;20492;-71
2021/08/14 05:26:46;;;;;;;24.65;15.63;;;15.40;84.10;;;;;;5050647;28;20463;-70
2021/08/14 05:29:12;;;;;;;30.55;15.70;;;15.50;84.50;;;;;;5050060;28;20569;-70
2021/08/14 05:31:37;;;;;;;26.77;15.10;;;15.50;83.60;;;;;;5051494;28;20468;-72
2021/08/14 05:34:04;;;;;;;27.70;15.50;;;15.60;82.70;;;;;;5050076;28;20476;-71
2021/08/14 05:36:31;;;;;;;25.20;14.90;;;15.70;81.60;;;;;;5050583;28;20492;-71
2021/08/14 05:38:57;;;;;;;29.00;16.50;;;15.70;80.40;;;;;;5051294;28;20429;-71
2021/08/14 05:41:22;;;;;;;28.40;15.70;;;15.80;79.20;;;;;;5051428;28;20428;-72
2021/08/14 05:43:48;;;;;;;24.67;15.27;;;15.80;78.70;;;;;;5054519;28;20444;-71
2021/08/14 05:46:14;;;;;;;23.87;14.50;;;16.00;75.50;;;;;;5053311;28;20491;-71
2021/08/14 05:48:39;;;;;;;23.20;14.88;;;16.10;75.00;;;;;;5050260;28;20385;-72
2021/08/14 05:51:05;;;;;;;25.08;15.90;;;16.10;75.10;;;;;;5050407;28;20377;-71
2021/08/14 05:53:31;;;;;;;24.97;15.07;;;16.20;74.30;;;;;;5051612;28;20396;-71
2021/08/14 05:55:56;;;;;;;30.00;15.50;;;16.30;73.90;;;;;;5054570;28;20382;-71
2021/08/14 05:58:22;;;;;;;26.60;15.50;;;16.30;72.30;;;;;;5054289;28;20385;-71
2021/08/14 06:00:47;;;;;;;24.90;15.17;;;16.40;72.00;;;;;;5053457;28;20396;-71
2021/08/14 06:03:13;;;;;;;28.98;15.40;;;16.50;69.80;;;;;;5054371;28;20397;-70
2021/08/14 06:05:38;;;;;;;24.90;14.33;;;16.50;68.40;;;;;;5054071;28;20381;-71
2021/08/14 06:08:04;;;;;;;25.73;14.70;;;16.70;68.20;;;;;;5053609;28;20373;-71
2021/08/14 06:10:30;;;;;;;31.53;15.17;;;16.70;66.60;;;;;;5053884;28;20377;-71
2021/08/14 06:12:55;;;;;;;25.43;14.50;;;16.80;65.70;;;;;;5053290;28;20405;-71
2021/08/14 06:15:21;;;;;;;32.47;14.20;;;17.10;63.10;;;;;;5053895;28;20381;-71
2021/08/14 06:17:47;;;;;;;25.75;14.80;;;17.10;62.10;;;;;;5053887;28;20409;-71
2021/08/14 06:20:12;;;;;;;24.02;13.30;;;17.20;60.50;;;;;;5053868;28;20882;-72
2021/08/14 06:22:42;;;;;;;22.33;13.75;;;17.30;60.30;;;;;;5053785;28;20801;-71
2021/08/14 06:25:10;;;;;;;24.77;13.25;;;17.40;58.60;;;;;;5053604;28;20401;-71
2021/08/14 06:27:35;;;;;;;27.13;12.63;;;17.40;57.70;;;;;;5047978;28;20428;-71
2021/08/14 06:30:01;;;;;;;22.97;10.33;;;17.50;55.20;;;;;;5033824;28;20390;-71
2021/08/14 06:32:27;;;;;;;23.53;9.40;;;17.70;45.40;;;;;;5034186;28;20402;-71
2021/08/14 06:34:53;;;;;;;28.27;9.70;;;17.70;43.60;;;;;;5033764;28;20868;-71
2021/08/14 06:37:18;;;;;;;22.20;9.90;;;17.90;43.60;;;;;;5042551;28;20393;-71
2021/08/14 06:39:44;;;;;;;25.48;8.77;;;18.10;41.10;;;;;;5053493;28;20447;-70
2021/08/14 06:42:09;;;;;;;21.27;9.20;;;18.10;40.40;;;;;;5053574;28;20390;-71
2021/08/14 06:44:35;;;;;;;20.07;8.40;;;18.20;40.00;;;;;;5053229;28;20772;-71
2021/08/14 06:47:01;;;;;;;27.67;8.83;;;18.40;39.30;;;;;;5054073;28;20377;-72
2021/08/14 06:49:27;;;;;;;20.67;7.40;;;18.50;37.90;;;;;;5053972;28;20856;-71
2021/08/14 06:51:52;;;;;;;19.60;7.72;;;18.50;37.60;;;;;;5053257;28;20473;-72
2021/08/14 06:54:18;;;;;;;23.60;9.00;;;18.60;37.20;;;;;;5053855;28;20475;-72
2021/08/14 06:56:43;;;;;;;20.03;7.40;;;18.60;37.40;;;;;;5052187;28;20393;-72
2021/08/14 06:59:09;;;;;;;22.60;7.13;;;18.70;36.80;;;;;;5052753;28;20892;-72
2021/08/14 07:01:34;;;;;;;17.55;6.22;;;19.00;34.40;;;;;;5052308;28;20516;-72
2021/08/14 07:04:00;;;;;;;14.20;6.13;;;18.90;34.00;;;;;;5053420;28;20436;-71
2021/08/14 07:06:26;;;;;;;15.50;6.20;;;18.90;33.40;;;;;;5051933;28;20400;-72
2021/08/14 07:08:52;;;;;;;19.83;5.60;;;18.90;32.90;;;;;;5053835;28;20394;-71
2021/08/14 07:11:22;;;;;;;15.88;5.90;;;19.00;32.30;;;;;;5053088;28;20389;-72
2021/08/14 07:13:48;;;;;;;21.95;6.10;;;19.10;33.30;;;;;;5053104;28;20385;-71
2021/08/14 07:16:14;;;;;;;16.95;6.00;;;19.10;33.60;;;;;;5053118;28;20451;-70
2021/08/14 07:18:40;;;;;;;16.63;6.20;;;19.30;32.10;;;;;;5052635;28;20715;-71
2021/08/14 07:21:05;;;;;;;21.13;6.60;;;19.30;32.10;;;;;;5052526;28;20408;-70
2021/08/14 07:23:31;;;;;;;16.92;6.20;;;19.30;32.20;;;;;;5052923;28;20401;-73
2021/08/14 07:25:57;;;;;;;17.08;6.93;;;19.40;32.10;;;;;;5053914;28;20813;-72
2021/08/14 07:28:22;;;;;;;16.30;6.50;;;19.60;31.60;;;;;;5053932;28;20409;-72
2021/08/14 07:30:48;;;;;;;16.27;6.43;;;19.70;30.40;;;;;;5052763;28;20381;-71
2021/08/14 07:33:15;;;;;;;16.50;6.10;;;19.70;30.60;;;;;;5052664;28;20386;-70
2021/08/14 07:35:41;;;;;;;15.20;6.30;;;19.70;31.00;;;;;;5052310;28;20408;-71
2021/08/14 07:38:07;;;;;;;17.55;6.68;;;19.90;30.90;;;;;;5052414;28;20531;-70
2021/08/14 07:40:33;;;;;;;15.90;5.90;;;19.90;29.60;;;;;;5052151;28;20448;-72
2021/08/14 07:42:58;;;;;;;16.17;5.90;;;19.90;29.80;;;;;;5052536;28;20389;-70
2021/08/14 07:45:24;;;;;;;19.08;6.63;;;20.00;29.70;;;;;;5052384;28;20381;-71
2021/08/14 07:47:51;;;;;;;16.80;6.88;;;20.00;29.30;;;;;;5052642;28;20766;-71
2021/08/14 07:50:27;;;;;;;15.43;6.85;;;20.10;29.00;;;;;;5051854;28;20762;-71
2021/08/14 07:52:54;;;;;;;15.68;6.25;;;20.10;29.50;;;;;;5052130;28;20398;-72
2021/08/14 07:55:20;;;;;;;17.92;5.50;;;20.10;29.60;;;;;;5052223;28;20904;-71
2021/08/14 07:57:46;;;;;;;19.10;6.35;;;20.10;29.40;;;;;;5051377;28;20401;-71
2021/08/14 08:00:15;;;;;;;16.73;6.00;;;20.20;28.40;;;;;;5059840;28;20380;-71
2021/08/14 08:02:42;;;;;;;16.67;6.57;;;20.30;28.00;;;;;;5055393;28;20924;-71
2021/08/14 08:05:08;;;;;;;21.75;6.72;;;20.40;27.10;;;;;;5051226;28;20432;-71
2021/08/14 08:07:35;;;;;;;18.88;6.20;;;20.40;27.10;;;;;;5051547;28;20736;-72
2021/08/14 08:10:02;;;;;;;17.60;6.03;;;20.50;27.90;;;;;;5052061;28;20461;-71
2021/08/14 08:12:28;;;;;;;19.83;5.70;;;20.50;27.60;;;;;;5071028;22;20427;-75
2021/08/14 08:14:53;;;;;;;18.85;6.28;;;20.50;27.30;;;;;;5072852;28;20441;-77
2021/08/14 08:17:19;;;;;;;16.35;6.40;;;20.60;28.10;;;;;;5071543;28;20395;-77
2021/08/14 08:19:45;;;;;;;18.50;5.70;;;20.70;26.70;;;;;;5074072;28;20480;-76
2021/08/14 08:22:10;;;;;;;16.10;5.47;;;20.90;26.00;;;;;;5071848;28;20407;-75
2021/08/14 08:24:36;;;;;;;13.15;5.40;;;20.90;26.20;;;;;;5072530;28;20415;-77
2021/08/14 08:27:01;;;;;;;16.30;5.53;;;21.00;24.80;;;;;;5071332;28;20404;-76
2021/08/14 08:29:27;;;;;;;13.88;4.90;;;21.10;24.40;;;;;;5071545;28;20466;-75
2021/08/14 08:31:53;;;;;;;17.58;5.40;;;21.10;22.80;;;;;;5071890;28;20387;-76
2021/08/14 08:34:23;;;;;;;14.35;4.80;;;21.10;22.10;;;;;;5073377;28;20383;-76
2021/08/14 08:36:49;;;;;;;14.50;5.15;;;21.20;21.30;;;;;;5072727;28;20813;-77
2021/08/14 08:39:15;;;;;;;15.07;5.10;;;21.20;19.90;;;;;;5071269;28;20961;-75
2021/08/14 08:41:41;;;;;;;11.17;4.87;;;21.20;19.80;;;;;;5070902;28;20403;-75
2021/08/14 08:44:06;;;;;;;13.10;4.45;;;21.20;20.00;;;;;;5071195;28;20403;-76
2021/08/14 08:46:33;;;;;;;9.73;4.43;;;21.20;20.20;;;;;;5070411;28;20737;-76
2021/08/14 08:49:01;;;;;;;11.33;4.80;;;21.40;19.60;;;;;;5070204;28;20394;-76
2021/08/14 08:51:30;;;;;;;12.68;4.18;;;21.40;20.00;;;;;;5071491;28;20426;-75
2021/08/14 08:53:56;;;;;;;11.10;4.43;;;21.40;18.90;;;;;;5071550;28;20400;-75
2021/08/14 08:56:22;;;;;;;12.02;4.40;;;21.50;18.80;;;;;;5071165;28;20450;-75
2021/08/14 08:58:48;;;;;;;14.57;5.03;;;21.50;18.50;;;;;;5070935;28;20415;-76
2021/08/14 09:01:13;;;;;;;13.38;4.97;;;21.50;18.70;;;;;;5072715;28;20614;-76
2021/08/14 09:03:39;;;;;;;10.98;4.13;;;21.50;19.30;;;;;;5072972;28;20733;-77
2021/08/14 09:06:04;;;;;;;13.02;4.63;;;21.60;19.40;;;;;;5077537;28;20836;-76
2021/08/14 09:08:30;;;;;;;14.73;5.17;;;21.60;19.10;;;;;;5077694;28;20859;-76
2021/08/14 09:11:14;;;;;;;16.50;4.40;;;21.60;18.80;;;;;;5077848;28;20392;-77
2021/08/14 09:14:00;;;;;;;12.80;5.00;;;21.60;19.00;;;;;;5082651;28;20412;-77
2021/08/14 09:16:26;;;;;;;13.55;4.47;;;21.60;19.70;;;;;;5081863;28;20412;-76
2021/08/14 09:18:59;;;;;;;13.52;4.60;;;21.70;18.40;;;;;;5078995;28;20399;-77
2021/08/14 09:21:41;;;;;;;10.85;4.32;;;21.90;18.20;;;;;;5071541;28;20878;-73
2021/08/14 09:24:08;;;;;;;15.77;4.25;;;22.00;18.30;;;;;;5070452;28;20404;-74
2021/08/14 09:26:45;;;;;;;12.68;4.40;;;22.20;17.40;;;;;;5071256;28;20878;-76
2021/08/14 09:29:11;;;;;;;10.70;4.57;;;22.20;16.60;;;;;;5070237;28;20396;-74
2021/08/14 09:31:50;;;;;;;11.10;4.15;;;22.20;16.70;;;;;;5071633;28;20814;-76
2021/08/14 09:34:24;;;;;;;13.52;4.38;;;22.40;16.20;;;;;;5071761;28;20399;-76
2021/08/14 09:37:03;;;;;;;12.82;4.20;;;22.50;16.70;;;;;;5071619;28;20390;-76
2021/08/14 09:39:30;;;;;;;10.52;3.92;;;22.50;15.70;;;;;;5071198;28;20400;-77
2021/08/14 09:42:09;;;;;;;12.32;4.05;;;22.50;15.50;;;;;;5072177;28;20427;-76
2021/08/14 09:44:36;;;;;;;6.72;3.70;;;22.40;15.10;;;;;;5072840;28;20400;-76
2021/08/14 09:47:08;;;;;;;8.65;3.80;;;22.40;14.20;;;;;;5071279;28;20404;-76
2021/08/14 09:49:54;;;;;;;10.55;4.00;;;22.60;14.80;;;;;;5069980;28;20430;-77
2021/08/14 09:52:23;;;;;;;10.55;3.80;;;22.70;13.20;;;;;;5070309;28;20448;-76
2021/08/14 09:54:49;;;;;;;12.90;4.40;;;22.70;13.80;;;;;;5071725;28;20392;-77
2021/08/14 09:57:16;;;;;;;9.40;4.07;;;22.80;14.10;;;;;;5072368;28;20395;-73
2021/08/14 09:59:45;;;;;;;10.50;3.77;;;22.80;13.50;;;;;;5072068;28;20816;-76
2021/08/14 10:02:21;;;;;;;13.27;4.05;;;23.00;14.00;;;;;;5071750;28;20407;-77
2021/08/14 10:04:48;;;;;;;9.45;3.80;;;23.00;13.30;;;;;;5070906;28;20410;-75
2021/08/14 10:07:14;;;;;;;13.53;4.83;;;23.10;13.60;;;;;;5073921;28;20395;-77
2021/08/14 10:09:42;;;;;;;7.93;4.10;;;23.00;13.90;;;;;;5072602;28;20454;-75
2021/08/14 10:12:12;;;;;;;14.52;4.95;;;23.00;13.80;;;;;;5071716;28;20455;-76
2021/08/14 10:14:40;;;;;;;12.45;4.30;;;23.00;14.10;;;;;;5071950;28;20395;-76
2021/08/14 10:17:06;;;;;;;14.75;4.38;;;23.10;13.50;;;;;;5070270;28;20503;-77
2021/08/14 10:19:32;;;;;;;8.43;3.50;;;23.20;12.90;;;;;;5070651;28;20869;-76
2021/08/14 10:21:58;;;;;;;11.63;3.70;;;23.30;12.50;;;;;;5071156;28;20752;-75
2021/08/14 10:24:25;;;;;;;8.05;3.63;;;23.40;12.90;;;;;;5072366;28;20399;-74
2021/08/14 10:27:09;;;;;;;7.90;3.50;;;23.50;12.30;;;;;;5071010;28;20423;-76
2021/08/14 10:29:58;;;;;;;8.98;3.55;;;23.50;11.70;;;;;;5070147;28;20872;-76
2021/08/14 10:32:29;;;;;;;7.40;3.40;;;23.40;11.40;;;;;;5068183;28;20406;-75
2021/08/14 10:35:20;;;;;;;11.02;3.55;;;23.40;12.50;;;;;;5070542;28;20855;-76
2021/08/14 10:37:46;;;;;;;8.20;3.20;;;23.50;12.00;;;;;;5066799;28;20408;-77
2021/08/14 10:40:14;;;;;;;13.95;3.75;;;23.60;11.60;;;;;;5073010;28;20416;-77
2021/08/14 10:42:54;;;;;;;8.20;3.40;;;23.60;11.00;;;;;;5074772;28;20752;-77
2021/08/14 10:45:33;;;;;;;7.03;3.38;;;23.60;11.60;;;;;;5074665;28;20847;-77
2021/08/14 10:48:05;;;;;;;6.90;3.20;;;23.70;11.00;;;;;;5073141;28;20396;-75
2021/08/14 10:50:31;;;;;;;8.23;3.20;;;23.80;11.70;;;;;;5075650;28;20864;-77
2021/08/14 10:53:23;;;;;;;8.60;3.50;;;23.80;10.70;;;;;;5075624;28;20388;-77
2021/08/14 10:55:51;;;;;;;12.38;3.95;;;23.80;11.60;;;;;;5073643;28;20478;-76
2021/08/14 10:58:30;;;;;;;7.25;3.70;;;23.90;11.40;;;;;;5073752;28;20399;-76
2021/08/14 11:01:02;;;;;;;8.30;3.80;;;24.00;10.60;;;;;;5073190;28;20398;-77
2021/08/14 11:03:38;;;;;;;10.50;3.88;;;24.00;10.50;;;;;;5073784;28;20863;-76
2021/08/14 11:06:28;;;;;;;9.05;3.40;;;24.00;10.30;;;;;;5074541;28;20396;-76
2021/08/14 11:09:18;;;;;;;9.93;3.60;;;23.80;10.70;;;;;;5073930;28;20432;-76
2021/08/14 11:11:55;;;;;;;9.05;3.60;;;23.80;11.00;;;;;;5075578;28;20398;-75
2021/08/14 11:14:36;;;;;;;9.80;4.20;;;23.90;11.40;;;;;;5076369;28;20403;-77
2021/08/14 11:17:02;;;;;;;7.20;3.78;;;24.00;10.60;;;;;;5075811;28;20413;-77
2021/08/14 11:19:46;;;;;;;9.30;3.78;;;24.00;10.30;;;;;;5076221;28;20403;-76
2021/08/14 11:22:24;;;;;;;6.93;3.53;;;24.00;10.30;;;;;;5076914;28;20482;-76
2021/08/14 11:24:50;;;;;;;10.02;3.60;;;24.00;10.30;;;;;;5075521;28;20671;-77
2021/08/14 11:27:29;;;;;;;8.93;3.60;;;24.10;10.60;;;;;;5078482;28;20455;-75
2021/08/14 11:30:00;;;;;;;9.15;4.10;;;24.20;10.20;;;;;;5078191;28;20409;-77
2021/08/14 11:32:27;;;;;;;10.93;3.80;;;24.30;10.70;;;;;;5074064;28;20380;-77
2021/08/14 11:34:53;;;;;;;6.57;3.60;;;24.40;9.80;;;;;;5074778;28;20398;-77
2021/08/14 11:37:19;;;;;;;10.77;3.57;;;24.40;10.00;;;;;;5072361;28;20800;-77
2021/08/14 11:39:45;;;;;;;7.13;3.80;;;24.50;9.80;;;;;;5076806;28;20476;-75
2021/08/14 11:42:11;;;;;;;7.30;3.10;;;24.60;9.40;;;;;;5074535;28;20387;-76
2021/08/14 11:44:38;;;;;;;7.78;3.40;;;24.50;9.00;;;;;;5076302;28;20457;-77
2021/08/14 11:47:08;;;;;;;7.70;3.70;;;24.30;9.30;;;;;;5076703;28;20398;-76
2021/08/14 11:49:58;;;;;;;7.68;3.80;;;24.40;10.20;;;;;;5076858;28;20516;-77
2021/08/14 11:52:25;;;;;;;10.15;3.80;;;24.40;10.20;;;;;;5070621;28;20832;-77
2021/08/14 11:55:07;;;;;;;7.30;3.40;;;24.60;10.20;;;;;;5076976;28;20399;-76
2021/08/14 11:57:35;;;;;;;8.27;3.90;;;24.70;9.70;;;;;;5074430;28;20372;-77
2021/08/14 12:00:05;;;;;;;13.48;3.90;;;24.70;9.80;;;;;;5071156;28;20898;-76
2021/08/14 12:02:31;;;;;;;8.05;3.45;;;24.70;9.90;;;;;;5073025;28;20429;-76
2021/08/14 12:04:57;;;;;;;6.80;3.70;;;24.60;9.70;;;;;;5073235;28;20407;-77
2021/08/14 12:07:23;;;;;;;8.87;3.80;;;24.70;10.40;;;;;;5073652;28;20391;-76
2021/08/14 12:09:50;;;;;;;9.05;4.20;;;24.70;10.20;;;;;;5077647;28;20387;-75
2021/08/14 12:12:20;;;;;;;9.80;3.77;;;24.70;10.40;;;;;;5083622;28;20415;-77
2021/08/14 12:14:46;;;;;;;9.57;3.83;;;24.90;10.00;;;;;;5075511;28;20403;-76
2021/08/14 12:17:12;;;;;;;6.55;4.00;;;24.90;9.20;;;;;;5078219;28;20391;-77
2021/08/14 12:19:55;;;;;;;9.68;3.53;;;24.90;8.90;;;;;;5082378;28;20442;-75
2021/08/14 12:22:28;;;;;;;6.50;3.43;;;24.90;9.50;;;;;;5068245;28;20389;-79
2021/08/14 12:24:53;;;;;;;9.02;3.58;;;25.00;9.50;;;;;;5071883;28;20411;-75
2021/08/14 12:27:23;;;;;;;9.10;3.53;;;25.10;9.40;;;;;;5086004;28;20901;-75
2021/08/14 12:29:49;;;;;;;7.25;3.80;;;25.00;10.10;;;;;;5086377;28;20379;-76
2021/08/14 12:32:15;;;;;;;8.70;3.97;;;25.10;9.50;;;;;;5087225;28;20372;-75
2021/08/14 12:34:42;;;;;;;7.63;3.30;;;25.30;9.70;;;;;;5084476;28;20406;-76
2021/08/14 12:37:13;;;;;;;7.32;3.70;;;25.20;9.30;;;;;;5076914;28;20386;-75